Terminal Aerodrome Forecast
Issued by NWS

Home | Current Version | Previous Version | Text Only | Print | Product List | Glossary On
Versions: 1 2 3 4 5 6 7 8 9 10 11 12 13 14
000
FTUS45 KTFX 131139
TAFHLN
TAF
KHLN 131139Z 1312/1412 VRB04KT P6SM SCT120
     FM131500 VRB03KT P6SM BKN060 BKN120
      TEMPO 1317/1321 4SM -SN OVC045
     FM132100 VRB04KT 6SM -SN BKN035 BKN050
     FM140000 VRB04KT P6SM SCT060 BKN080
     FM140600 VRB03KT P6SM FEW070 SCT100=

USA.gov is the U.S. government's official web portal to all federal, state and local government web resources and services.